sensor_id;sensor_type;location;lat;lon;timestamp;P1;durP1;ratioP1;P2;durP2;ratioP2
32633;SDS011;19043;51.012;5.648;2023-04-25T00:00:25;16.35;;;6.43;;
32633;SDS011;19043;51.012;5.648;2023-04-25T00:02:50;13.70;;;7.00;;
32633;SDS011;19043;51.012;5.648;2023-04-25T00:05:16;13.63;;;6.38;;
32633;SDS011;19043;51.012;5.648;2023-04-25T00:07:41;20.15;;;7.45;;
32633;SDS011;19043;51.012;5.648;2023-04-25T00:10:10;20.13;;;7.00;;
32633;SDS011;19043;51.012;5.648;2023-04-25T00:12:36;20.95;;;6.85;;
32633;SDS011;19043;51.012;5.648;2023-04-25T00:15:02;16.92;;;6.65;;
32633;SDS011;19043;51.012;5.648;2023-04-25T00:17:28;20.13;;;6.32;;
32633;SDS011;19043;51.012;5.648;2023-04-25T00:19:53;14.23;;;6.47;;
32633;SDS011;19043;51.012;5.648;2023-04-25T00:22:18;24.90;;;7.78;;
32633;SDS011;19043;51.012;5.648;2023-04-25T00:24:44;14.63;;;6.78;;
32633;SDS011;19043;51.012;5.648;2023-04-25T00:27:09;17.45;;;6.68;;
32633;SDS011;19043;51.012;5.648;2023-04-25T00:29:34;14.73;;;6.35;;
32633;SDS011;19043;51.012;5.648;2023-04-25T00:31:59;17.98;;;7.32;;
32633;SDS011;19043;51.012;5.648;2023-04-25T00:34:25;22.20;;;7.32;;
32633;SDS011;19043;51.012;5.648;2023-04-25T00:36:50;15.68;;;6.40;;
32633;SDS011;19043;51.012;5.648;2023-04-25T00:39:16;13.70;;;6.07;;
32633;SDS011;19043;51.012;5.648;2023-04-25T00:41:41;17.60;;;7.15;;
32633;SDS011;19043;51.012;5.648;2023-04-25T00:44:08;16.30;;;6.80;;
32633;SDS011;19043;51.012;5.648;2023-04-25T00:46:35;10.77;;;5.85;;
32633;SDS011;19043;51.012;5.648;2023-04-25T00:49:00;17.45;;;7.00;;
32633;SDS011;19043;51.012;5.648;2023-04-25T00:51:25;18.42;;;6.18;;
32633;SDS011;19043;51.012;5.648;2023-04-25T00:53:51;20.05;;;6.88;;
32633;SDS011;19043;51.012;5.648;2023-04-25T00:56:17;18.60;;;6.60;;
32633;SDS011;19043;51.012;5.648;2023-04-25T00:58:42;16.13;;;6.68;;
32633;SDS011;19043;51.012;5.648;2023-04-25T01:01:08;15.63;;;6.25;;
32633;SDS011;19043;51.012;5.648;2023-04-25T01:03:34;21.00;;;6.78;;
32633;SDS011;19043;51.012;5.648;2023-04-25T01:06:05;14.45;;;6.65;;
32633;SDS011;19043;51.012;5.648;2023-04-25T01:08:31;16.48;;;6.53;;
32633;SDS011;19043;51.012;5.648;2023-04-25T01:10:56;14.95;;;6.72;;
32633;SDS011;19043;51.012;5.648;2023-04-25T01:13:21;27.55;;;7.30;;
32633;SDS011;19043;51.012;5.648;2023-04-25T01:15:47;17.25;;;6.60;;
32633;SDS011;19043;51.012;5.648;2023-04-25T01:18:12;16.77;;;5.63;;
32633;SDS011;19043;51.012;5.648;2023-04-25T01:20:37;16.00;;;6.20;;
32633;SDS011;19043;51.012;5.648;2023-04-25T01:23:03;17.85;;;7.13;;
32633;SDS011;19043;51.012;5.648;2023-04-25T01:25:30;13.00;;;5.70;;
32633;SDS011;19043;51.012;5.648;2023-04-25T01:27:55;14.43;;;6.50;;
32633;SDS011;19043;51.012;5.648;2023-04-25T01:30:20;14.48;;;6.07;;
32633;SDS011;19043;51.012;5.648;2023-04-25T01:32:46;16.73;;;6.35;;
32633;SDS011;19043;51.012;5.648;2023-04-25T01:35:12;16.58;;;6.70;;
32633;SDS011;19043;51.012;5.648;2023-04-25T01:37:40;17.02;;;6.07;;
32633;SDS011;19043;51.012;5.648;2023-04-25T01:40:06;17.58;;;6.30;;
32633;SDS011;19043;51.012;5.648;2023-04-25T01:42:33;14.23;;;6.55;;
32633;SDS011;19043;51.012;5.648;2023-04-25T01:44:58;18.20;;;6.75;;
32633;SDS011;19043;51.012;5.648;2023-04-25T01:47:24;19.85;;;6.53;;
32633;SDS011;19043;51.012;5.648;2023-04-25T01:49:49;14.65;;;6.70;;
32633;SDS011;19043;51.012;5.648;2023-04-25T01:52:14;16.13;;;6.32;;
32633;SDS011;19043;51.012;5.648;2023-04-25T01:54:40;13.90;;;6.25;;
32633;SDS011;19043;51.012;5.648;2023-04-25T01:57:09;20.55;;;7.43;;
32633;SDS011;19043;51.012;5.648;2023-04-25T01:59:34;19.05;;;8.07;;
32633;SDS011;19043;51.012;5.648;2023-04-25T02:01:59;17.90;;;7.28;;
32633;SDS011;19043;51.012;5.648;2023-04-25T02:04:28;23.02;;;7.57;;
32633;SDS011;19043;51.012;5.648;2023-04-25T02:06:53;20.42;;;7.53;;
32633;SDS011;19043;51.012;5.648;2023-04-25T02:09:19;18.80;;;8.00;;
32633;SDS011;19043;51.012;5.648;2023-04-25T02:11:44;15.15;;;7.32;;
32633;SDS011;19043;51.012;5.648;2023-04-25T02:14:10;21.75;;;7.72;;
32633;SDS011;19043;51.012;5.648;2023-04-25T02:16:35;19.75;;;6.88;;
32633;SDS011;19043;51.012;5.648;2023-04-25T02:19:00;17.48;;;7.72;;
32633;SDS011;19043;51.012;5.648;2023-04-25T02:21:26;19.67;;;8.35;;
32633;SDS011;19043;51.012;5.648;2023-04-25T02:23:51;20.33;;;7.35;;
32633;SDS011;19043;51.012;5.648;2023-04-25T02:26:17;19.98;;;8.13;;
32633;SDS011;19043;51.012;5.648;2023-04-25T02:28:42;13.52;;;7.63;;
32633;SDS011;19043;51.012;5.648;2023-04-25T02:31:07;18.00;;;7.28;;
32633;SDS011;19043;51.012;5.648;2023-04-25T02:33:32;24.00;;;7.95;;
32633;SDS011;19043;51.012;5.648;2023-04-25T02:35:58;14.55;;;6.75;;
32633;SDS011;19043;51.012;5.648;2023-04-25T02:38:23;19.33;;;7.90;;
32633;SDS011;19043;51.012;5.648;2023-04-25T02:40:48;18.35;;;7.68;;
32633;SDS011;19043;51.012;5.648;2023-04-25T02:43:13;19.40;;;6.88;;
32633;SDS011;19043;51.012;5.648;2023-04-25T02:45:39;14.00;;;6.43;;
32633;SDS011;19043;51.012;5.648;2023-04-25T02:48:04;24.23;;;8.27;;
32633;SDS011;19043;51.012;5.648;2023-04-25T02:50:29;12.70;;;7.20;;
32633;SDS011;19043;51.012;5.648;2023-04-25T02:52:55;15.75;;;7.57;;
32633;SDS011;19043;51.012;5.648;2023-04-25T02:55:20;19.35;;;6.97;;
32633;SDS011;19043;51.012;5.648;2023-04-25T02:57:45;17.00;;;8.30;;
32633;SDS011;19043;51.012;5.648;2023-04-25T03:00:11;17.40;;;7.30;;
32633;SDS011;19043;51.012;5.648;2023-04-25T03:02:36;15.23;;;7.85;;
32633;SDS011;19043;51.012;5.648;2023-04-25T03:05:02;17.40;;;7.60;;
32633;SDS011;19043;51.012;5.648;2023-04-25T03:07:28;23.50;;;7.95;;
32633;SDS011;19043;51.012;5.648;2023-04-25T03:09:53;14.25;;;7.88;;
32633;SDS011;19043;51.012;5.648;2023-04-25T03:12:18;15.98;;;8.07;;
32633;SDS011;19043;51.012;5.648;2023-04-25T03:14:44;15.07;;;7.22;;
32633;SDS011;19043;51.012;5.648;2023-04-25T03:17:09;21.00;;;8.20;;
32633;SDS011;19043;51.012;5.648;2023-04-25T03:19:35;16.17;;;8.02;;
32633;SDS011;19043;51.012;5.648;2023-04-25T03:22:00;16.52;;;8.20;;
32633;SDS011;19043;51.012;5.648;2023-04-25T03:24:25;18.15;;;8.52;;
32633;SDS011;19043;51.012;5.648;2023-04-25T03:26:52;19.40;;;8.00;;
32633;SDS011;19043;51.012;5.648;2023-04-25T03:29:17;17.67;;;8.98;;
32633;SDS011;19043;51.012;5.648;2023-04-25T03:31:42;22.60;;;7.95;;
32633;SDS011;19043;51.012;5.648;2023-04-25T03:34:08;22.35;;;9.30;;
32633;SDS011;19043;51.012;5.648;2023-04-25T03:36:33;15.40;;;8.55;;
32633;SDS011;19043;51.012;5.648;2023-04-25T03:38:58;16.35;;;8.45;;
32633;SDS011;19043;51.012;5.648;2023-04-25T03:41:23;23.92;;;8.88;;
32633;SDS011;19043;51.012;5.648;2023-04-25T03:43:49;30.02;;;8.93;;
32633;SDS011;19043;51.012;5.648;2023-04-25T03:46:15;13.57;;;8.65;;
32633;SDS011;19043;51.012;5.648;2023-04-25T03:48:40;26.42;;;9.20;;
32633;SDS011;19043;51.012;5.648;2023-04-25T03:51:05;23.33;;;9.07;;
32633;SDS011;19043;51.012;5.648;2023-04-25T03:53:31;18.42;;;9.13;;
32633;SDS011;19043;51.012;5.648;2023-04-25T03:55:56;15.32;;;8.13;;
32633;SDS011;19043;51.012;5.648;2023-04-25T03:58:21;21.92;;;9.77;;
32633;SDS011;19043;51.012;5.648;2023-04-25T04:00:48;22.73;;;8.90;;
32633;SDS011;19043;51.012;5.648;2023-04-25T04:03:13;29.85;;;10.75;;
32633;SDS011;19043;51.012;5.648;2023-04-25T04:05:39;23.42;;;9.63;;
32633;SDS011;19043;51.012;5.648;2023-04-25T04:08:05;20.95;;;9.15;;
32633;SDS011;19043;51.012;5.648;2023-04-25T04:10:30;18.83;;;9.27;;
32633;SDS011;19043;51.012;5.648;2023-04-25T04:12:56;17.95;;;8.75;;
32633;SDS011;19043;51.012;5.648;2023-04-25T04:15:21;21.20;;;9.98;;
32633;SDS011;19043;51.012;5.648;2023-04-25T04:17:47;22.52;;;9.52;;
32633;SDS011;19043;51.012;5.648;2023-04-25T04:20:13;18.67;;;9.00;;
32633;SDS011;19043;51.012;5.648;2023-04-25T04:22:38;21.77;;;9.10;;
32633;SDS011;19043;51.012;5.648;2023-04-25T04:25:03;23.48;;;9.27;;
32633;SDS011;19043;51.012;5.648;2023-04-25T04:27:30;16.30;;;9.35;;
32633;SDS011;19043;51.012;5.648;2023-04-25T04:29:56;24.88;;;8.32;;
32633;SDS011;19043;51.012;5.648;2023-04-25T04:32:22;20.42;;;8.88;;
32633;SDS011;19043;51.012;5.648;2023-04-25T04:34:48;17.13;;;9.00;;
32633;SDS011;19043;51.012;5.648;2023-04-25T04:37:13;19.83;;;9.00;;
32633;SDS011;19043;51.012;5.648;2023-04-25T04:39:39;19.02;;;9.10;;
32633;SDS011;19043;51.012;5.648;2023-04-25T04:42:05;20.20;;;9.00;;
32633;SDS011;19043;51.012;5.648;2023-04-25T04:44:30;16.10;;;7.65;;
32633;SDS011;19043;51.012;5.648;2023-04-25T04:46:57;17.20;;;8.48;;
32633;SDS011;19043;51.012;5.648;2023-04-25T04:49:23;21.35;;;8.50;;
32633;SDS011;19043;51.012;5.648;2023-04-25T04:51:48;17.08;;;8.20;;
32633;SDS011;19043;51.012;5.648;2023-04-25T04:54:14;21.38;;;9.57;;
32633;SDS011;19043;51.012;5.648;2023-04-25T04:56:40;11.65;;;8.00;;
32633;SDS011;19043;51.012;5.648;2023-04-25T04:59:06;18.13;;;8.38;;
32633;SDS011;19043;51.012;5.648;2023-04-25T05:01:32;20.30;;;8.68;;
32633;SDS011;19043;51.012;5.648;2023-04-25T05:03:57;22.08;;;8.50;;
32633;SDS011;19043;51.012;5.648;2023-04-25T05:06:25;17.98;;;8.65;;
32633;SDS011;19043;51.012;5.648;2023-04-25T05:08:50;26.42;;;8.27;;
32633;SDS011;19043;51.012;5.648;2023-04-25T05:11:16;24.13;;;8.68;;
32633;SDS011;19043;51.012;5.648;2023-04-25T05:13:41;19.85;;;9.25;;
32633;SDS011;19043;51.012;5.648;2023-04-25T05:16:06;25.63;;;9.70;;
32633;SDS011;19043;51.012;5.648;2023-04-25T05:18:31;15.43;;;7.28;;
32633;SDS011;19043;51.012;5.648;2023-04-25T05:20:57;18.77;;;8.52;;
32633;SDS011;19043;51.012;5.648;2023-04-25T05:23:22;27.40;;;9.00;;
32633;SDS011;19043;51.012;5.648;2023-04-25T05:25:47;17.83;;;8.00;;
32633;SDS011;19043;51.012;5.648;2023-04-25T05:28:12;24.75;;;7.95;;
32633;SDS011;19043;51.012;5.648;2023-04-25T05:30:38;20.77;;;8.07;;
32633;SDS011;19043;51.012;5.648;2023-04-25T05:33:03;15.38;;;8.20;;
32633;SDS011;19043;51.012;5.648;2023-04-25T05:35:28;18.40;;;7.90;;
32633;SDS011;19043;51.012;5.648;2023-04-25T05:37:53;18.83;;;7.88;;
32633;SDS011;19043;51.012;5.648;2023-04-25T05:40:19;20.45;;;7.80;;
32633;SDS011;19043;51.012;5.648;2023-04-25T05:42:44;16.25;;;8.45;;
32633;SDS011;19043;51.012;5.648;2023-04-25T05:45:10;19.80;;;8.07;;
32633;SDS011;19043;51.012;5.648;2023-04-25T05:47:35;19.85;;;8.00;;
32633;SDS011;19043;51.012;5.648;2023-04-25T05:50:00;18.05;;;6.82;;
32633;SDS011;19043;51.012;5.648;2023-04-25T05:52:25;21.23;;;8.15;;
32633;SDS011;19043;51.012;5.648;2023-04-25T05:54:51;25.88;;;8.88;;
32633;SDS011;19043;51.012;5.648;2023-04-25T05:57:23;20.48;;;8.27;;
32633;SDS011;19043;51.012;5.648;2023-04-25T05:59:49;21.58;;;8.52;;
32633;SDS011;19043;51.012;5.648;2023-04-25T06:02:14;25.00;;;8.38;;
32633;SDS011;19043;51.012;5.648;2023-04-25T06:04:39;18.20;;;8.10;;
32633;SDS011;19043;51.012;5.648;2023-04-25T06:07:04;26.90;;;9.43;;
32633;SDS011;19043;51.012;5.648;2023-04-25T06:09:30;21.58;;;8.98;;
32633;SDS011;19043;51.012;5.648;2023-04-25T06:11:55;15.57;;;7.90;;
32633;SDS011;19043;51.012;5.648;2023-04-25T06:14:20;24.35;;;7.15;;
32633;SDS011;19043;51.012;5.648;2023-04-25T06:16:45;14.63;;;6.95;;
32633;SDS011;19043;51.012;5.648;2023-04-25T06:19:11;15.48;;;7.43;;
32633;SDS011;19043;51.012;5.648;2023-04-25T06:21:36;23.63;;;7.80;;
32633;SDS011;19043;51.012;5.648;2023-04-25T06:24:01;15.32;;;6.47;;
32633;SDS011;19043;51.012;5.648;2023-04-25T06:26:26;18.85;;;6.70;;
32633;SDS011;19043;51.012;5.648;2023-04-25T06:28:52;14.18;;;5.90;;
32633;SDS011;19043;51.012;5.648;2023-04-25T06:31:17;17.00;;;6.50;;
32633;SDS011;19043;51.012;5.648;2023-04-25T06:33:42;14.23;;;5.60;;
32633;SDS011;19043;51.012;5.648;2023-04-25T06:36:08;17.92;;;6.70;;
32633;SDS011;19043;51.012;5.648;2023-04-25T06:38:33;15.57;;;6.45;;
32633;SDS011;19043;51.012;5.648;2023-04-25T06:40:59;13.15;;;6.10;;
32633;SDS011;19043;51.012;5.648;2023-04-25T06:43:25;14.77;;;6.20;;
32633;SDS011;19043;51.012;5.648;2023-04-25T06:45:50;15.57;;;5.43;;
32633;SDS011;19043;51.012;5.648;2023-04-25T06:48:15;17.67;;;6.20;;
32633;SDS011;19043;51.012;5.648;2023-04-25T06:50:41;17.83;;;5.95;;
32633;SDS011;19043;51.012;5.648;2023-04-25T06:53:06;18.67;;;6.40;;
32633;SDS011;19043;51.012;5.648;2023-04-25T06:55:33;17.85;;;5.38;;
32633;SDS011;19043;51.012;5.648;2023-04-25T06:57:59;11.27;;;4.80;;
32633;SDS011;19043;51.012;5.648;2023-04-25T07:00:25;13.88;;;5.45;;
32633;SDS011;19043;51.012;5.648;2023-04-25T07:02:50;8.95;;;4.88;;
32633;SDS011;19043;51.012;5.648;2023-04-25T07:05:16;11.00;;;5.35;;
32633;SDS011;19043;51.012;5.648;2023-04-25T07:07:41;12.88;;;5.47;;
32633;SDS011;19043;51.012;5.648;2023-04-25T07:10:06;11.32;;;4.80;;
32633;SDS011;19043;51.012;5.648;2023-04-25T07:12:32;13.70;;;4.50;;
32633;SDS011;19043;51.012;5.648;2023-04-25T07:14:57;13.45;;;5.57;;
32633;SDS011;19043;51.012;5.648;2023-04-25T07:17:22;14.50;;;4.90;;
32633;SDS011;19043;51.012;5.648;2023-04-25T07:19:47;11.35;;;4.63;;
32633;SDS011;19043;51.012;5.648;2023-04-25T07:22:13;15.18;;;4.93;;
32633;SDS011;19043;51.012;5.648;2023-04-25T07:24:38;14.95;;;5.20;;
32633;SDS011;19043;51.012;5.648;2023-04-25T07:27:03;17.10;;;5.07;;
32633;SDS011;19043;51.012;5.648;2023-04-25T07:29:29;9.60;;;4.65;;
32633;SDS011;19043;51.012;5.648;2023-04-25T07:31:55;12.32;;;4.95;;
32633;SDS011;19043;51.012;5.648;2023-04-25T07:34:21;10.57;;;5.05;;
32633;SDS011;19043;51.012;5.648;2023-04-25T07:36:46;14.45;;;5.28;;
32633;SDS011;19043;51.012;5.648;2023-04-25T07:39:11;15.57;;;3.67;;
32633;SDS011;19043;51.012;5.648;2023-04-25T07:41:37;12.82;;;4.57;;
32633;SDS011;19043;51.012;5.648;2023-04-25T07:44:02;13.63;;;4.45;;
32633;SDS011;19043;51.012;5.648;2023-04-25T07:46:27;13.15;;;4.70;;
32633;SDS011;19043;51.012;5.648;2023-04-25T07:48:52;16.98;;;4.45;;
32633;SDS011;19043;51.012;5.648;2023-04-25T07:51:18;12.45;;;5.07;;
32633;SDS011;19043;51.012;5.648;2023-04-25T07:53:45;10.80;;;4.68;;
32633;SDS011;19043;51.012;5.648;2023-04-25T07:56:10;8.82;;;4.10;;
32633;SDS011;19043;51.012;5.648;2023-04-25T07:58:35;9.10;;;3.78;;
32633;SDS011;19043;51.012;5.648;2023-04-25T08:01:01;9.60;;;4.00;;
32633;SDS011;19043;51.012;5.648;2023-04-25T08:03:26;12.50;;;4.70;;
32633;SDS011;19043;51.012;5.648;2023-04-25T08:05:51;16.25;;;4.07;;
32633;SDS011;19043;51.012;5.648;2023-04-25T08:08:16;11.60;;;3.58;;
32633;SDS011;19043;51.012;5.648;2023-04-25T08:10:42;11.95;;;4.10;;
32633;SDS011;19043;51.012;5.648;2023-04-25T08:13:07;13.75;;;4.20;;
32633;SDS011;19043;51.012;5.648;2023-04-25T08:15:32;13.23;;;4.45;;
32633;SDS011;19043;51.012;5.648;2023-04-25T08:17:57;10.05;;;3.35;;
32633;SDS011;19043;51.012;5.648;2023-04-25T08:20:23;8.60;;;3.40;;
32633;SDS011;19043;51.012;5.648;2023-04-25T08:22:48;12.30;;;3.28;;
32633;SDS011;19043;51.012;5.648;2023-04-25T08:25:14;12.15;;;5.25;;
32633;SDS011;19043;51.012;5.648;2023-04-25T08:27:39;13.02;;;3.63;;
32633;SDS011;19043;51.012;5.648;2023-04-25T08:30:04;18.50;;;4.60;;
32633;SDS011;19043;51.012;5.648;2023-04-25T08:32:30;12.18;;;3.85;;
32633;SDS011;19043;51.012;5.648;2023-04-25T08:34:55;11.43;;;3.47;;
32633;SDS011;19043;51.012;5.648;2023-04-25T08:37:21;9.88;;;4.13;;
32633;SDS011;19043;51.012;5.648;2023-04-25T08:39:46;9.23;;;3.63;;
32633;SDS011;19043;51.012;5.648;2023-04-25T08:42:13;18.05;;;3.40;;
32633;SDS011;19043;51.012;5.648;2023-04-25T08:44:39;6.18;;;2.83;;
32633;SDS011;19043;51.012;5.648;2023-04-25T08:47:05;11.50;;;3.65;;
32633;SDS011;19043;51.012;5.648;2023-04-25T08:49:33;9.68;;;3.67;;
32633;SDS011;19043;51.012;5.648;2023-04-25T08:52:00;11.73;;;3.70;;
32633;SDS011;19043;51.012;5.648;2023-04-25T08:54:25;11.63;;;4.45;;
32633;SDS011;19043;51.012;5.648;2023-04-25T08:56:53;7.57;;;3.33;;
32633;SDS011;19043;51.012;5.648;2023-04-25T08:59:18;10.20;;;3.83;;
32633;SDS011;19043;51.012;5.648;2023-04-25T09:01:44;11.45;;;3.00;;
32633;SDS011;19043;51.012;5.648;2023-04-25T09:04:11;11.68;;;3.53;;
32633;SDS011;19043;51.012;5.648;2023-04-25T09:06:37;6.50;;;3.40;;
32633;SDS011;19043;51.012;5.648;2023-04-25T09:09:06;9.80;;;3.75;;
32633;SDS011;19043;51.012;5.648;2023-04-25T09:11:32;10.40;;;3.33;;
32633;SDS011;19043;51.012;5.648;2023-04-25T09:14:10;10.20;;;3.53;;
32633;SDS011;19043;51.012;5.648;2023-04-25T09:16:35;11.35;;;3.85;;
32633;SDS011;19043;51.012;5.648;2023-04-25T09:19:00;9.15;;;2.38;;
32633;SDS011;19043;51.012;5.648;2023-04-25T09:21:26;15.60;;;3.95;;
32633;SDS011;19043;51.012;5.648;2023-04-25T09:23:52;10.57;;;3.17;;
32633;SDS011;19043;51.012;5.648;2023-04-25T09:26:18;8.95;;;3.00;;
32633;SDS011;19043;51.012;5.648;2023-04-25T09:28:43;14.80;;;3.45;;
32633;SDS011;19043;51.012;5.648;2023-04-25T09:31:10;17.95;;;3.22;;
32633;SDS011;19043;51.012;5.648;2023-04-25T09:33:40;10.73;;;3.17;;
32633;SDS011;19043;51.012;5.648;2023-04-25T09:36:08;7.93;;;2.90;;
32633;SDS011;19043;51.012;5.648;2023-04-25T09:38:42;6.90;;;2.70;;
32633;SDS011;19043;51.012;5.648;2023-04-25T09:41:07;12.55;;;3.17;;
32633;SDS011;19043;51.012;5.648;2023-04-25T09:43:33;7.07;;;2.50;;
32633;SDS011;19043;51.012;5.648;2023-04-25T09:45:58;7.65;;;2.60;;
32633;SDS011;19043;51.012;5.648;2023-04-25T09:48:26;6.80;;;2.35;;
32633;SDS011;19043;51.012;5.648;2023-04-25T09:51:04;8.45;;;2.63;;
32633;SDS011;19043;51.012;5.648;2023-04-25T09:53:30;11.43;;;2.40;;
32633;SDS011;19043;51.012;5.648;2023-04-25T09:55:57;9.85;;;3.42;;
32633;SDS011;19043;51.012;5.648;2023-04-25T09:58:24;6.78;;;2.60;;
32633;SDS011;19043;51.012;5.648;2023-04-25T10:00:53;7.65;;;2.17;;
32633;SDS011;19043;51.012;5.648;2023-04-25T10:03:20;8.00;;;3.05;;
32633;SDS011;19043;51.012;5.648;2023-04-25T10:05:45;14.68;;;3.83;;
32633;SDS011;19043;51.012;5.648;2023-04-25T10:08:11;11.23;;;3.30;;
32633;SDS011;19043;51.012;5.648;2023-04-25T10:10:37;5.13;;;2.28;;
32633;SDS011;19043;51.012;5.648;2023-04-25T10:13:04;7.93;;;3.08;;
32633;SDS011;19043;51.012;5.648;2023-04-25T10:15:31;10.45;;;3.22;;
32633;SDS011;19043;51.012;5.648;2023-04-25T10:17:57;9.05;;;2.80;;
32633;SDS011;19043;51.012;5.648;2023-04-25T10:20:23;6.88;;;2.97;;
32633;SDS011;19043;51.012;5.648;2023-04-25T10:22:48;9.80;;;2.53;;
32633;SDS011;19043;51.012;5.648;2023-04-25T10:25:19;11.55;;;2.72;;
32633;SDS011;19043;51.012;5.648;2023-04-25T10:27:44;7.75;;;2.72;;
32633;SDS011;19043;51.012;5.648;2023-04-25T10:30:11;9.18;;;2.58;;
32633;SDS011;19043;51.012;5.648;2023-04-25T10:32:39;6.90;;;2.47;;
32633;SDS011;19043;51.012;5.648;2023-04-25T10:35:26;7.13;;;2.20;;
32633;SDS011;19043;51.012;5.648;2023-04-25T10:42:54;6.53;;;3.00;;
32633;SDS011;19043;51.012;5.648;2023-04-25T10:45:20;5.82;;;2.80;;
32633;SDS011;19043;51.012;5.648;2023-04-25T10:47:46;9.25;;;3.30;;
32633;SDS011;19043;51.012;5.648;2023-04-25T10:50:11;5.97;;;2.67;;
32633;SDS011;19043;51.012;5.648;2023-04-25T10:52:40;8.07;;;2.85;;
32633;SDS011;19043;51.012;5.648;2023-04-25T10:55:05;4.57;;;2.00;;
32633;SDS011;19043;51.012;5.648;2023-04-25T11:02:30;7.55;;;2.60;;
32633;SDS011;19043;51.012;5.648;2023-04-25T11:04:56;11.02;;;2.35;;
32633;SDS011;19043;51.012;5.648;2023-04-25T11:07:35;12.02;;;2.22;;
32633;SDS011;19043;51.012;5.648;2023-04-25T11:10:03;8.38;;;2.30;;
32633;SDS011;19043;51.012;5.648;2023-04-25T11:12:29;9.35;;;2.65;;
32633;SDS011;19043;51.012;5.648;2023-04-25T11:14:59;8.57;;;2.13;;
32633;SDS011;19043;51.012;5.648;2023-04-25T11:17:26;5.55;;;2.55;;
32633;SDS011;19043;51.012;5.648;2023-04-25T11:19:51;5.50;;;2.10;;
32633;SDS011;19043;51.012;5.648;2023-04-25T11:22:16;4.55;;;2.20;;
32633;SDS011;19043;51.012;5.648;2023-04-25T11:24:41;8.43;;;2.38;;
32633;SDS011;19043;51.012;5.648;2023-04-25T11:27:07;11.10;;;3.00;;
32633;SDS011;19043;51.012;5.648;2023-04-25T11:29:33;6.30;;;2.83;;
32633;SDS011;19043;51.012;5.648;2023-04-25T11:31:59;5.68;;;2.35;;
32633;SDS011;19043;51.012;5.648;2023-04-25T11:34:26;9.35;;;2.63;;
32633;SDS011;19043;51.012;5.648;2023-04-25T11:36:51;5.45;;;2.47;;
32633;SDS011;19043;51.012;5.648;2023-04-25T11:39:18;6.53;;;2.65;;
32633;SDS011;19043;51.012;5.648;2023-04-25T11:41:43;7.68;;;3.17;;
32633;SDS011;19043;51.012;5.648;2023-04-25T11:44:08;4.90;;;2.08;;
32633;SDS011;19043;51.012;5.648;2023-04-25T11:46:34;13.25;;;3.92;;
32633;SDS011;19043;51.012;5.648;2023-04-25T11:48:59;7.82;;;2.55;;
32633;SDS011;19043;51.012;5.648;2023-04-25T11:51:25;7.82;;;2.85;;
32633;SDS011;19043;51.012;5.648;2023-04-25T11:53:51;4.65;;;2.17;;
32633;SDS011;19043;51.012;5.648;2023-04-25T11:56:16;7.65;;;2.60;;
32633;SDS011;19043;51.012;5.648;2023-04-25T11:58:58;13.50;;;3.17;;
32633;SDS011;19043;51.012;5.648;2023-04-25T12:03:52;6.20;;;2.58;;
32633;SDS011;19043;51.012;5.648;2023-04-25T12:06:17;4.35;;;1.70;;
32633;SDS011;19043;51.012;5.648;2023-04-25T12:08:58;3.65;;;2.03;;
32633;SDS011;19043;51.012;5.648;2023-04-25T12:11:24;9.80;;;2.90;;
32633;SDS011;19043;51.012;5.648;2023-04-25T12:13:51;6.80;;;2.10;;
32633;SDS011;19043;51.012;5.648;2023-04-25T12:16:17;6.18;;;2.50;;
32633;SDS011;19043;51.012;5.648;2023-04-25T12:18:42;9.55;;;1.95;;
32633;SDS011;19043;51.012;5.648;2023-04-25T12:21:07;6.38;;;2.05;;
32633;SDS011;19043;51.012;5.648;2023-04-25T12:23:34;4.40;;;2.10;;
32633;SDS011;19043;51.012;5.648;2023-04-25T12:26:03;4.63;;;2.15;;
32633;SDS011;19043;51.012;5.648;2023-04-25T12:28:28;7.95;;;1.90;;
32633;SDS011;19043;51.012;5.648;2023-04-25T12:30:58;4.85;;;2.10;;
32633;SDS011;19043;51.012;5.648;2023-04-25T12:33:23;5.43;;;2.00;;
32633;SDS011;19043;51.012;5.648;2023-04-25T12:35:49;4.18;;;1.65;;
32633;SDS011;19043;51.012;5.648;2023-04-25T12:38:21;5.47;;;1.55;;
32633;SDS011;19043;51.012;5.648;2023-04-25T12:40:46;3.60;;;1.63;;
32633;SDS011;19043;51.012;5.648;2023-04-25T12:43:11;5.00;;;1.75;;
32633;SDS011;19043;51.012;5.648;2023-04-25T12:45:37;4.13;;;1.83;;
32633;SDS011;19043;51.012;5.648;2023-04-25T12:48:02;6.53;;;1.92;;
32633;SDS011;19043;51.012;5.648;2023-04-25T12:50:27;8.98;;;2.47;;
32633;SDS011;19043;51.012;5.648;2023-04-25T12:52:53;5.53;;;1.83;;
32633;SDS011;19043;51.012;5.648;2023-04-25T12:55:18;7.28;;;2.50;;
32633;SDS011;19043;51.012;5.648;2023-04-25T12:57:43;7.15;;;2.08;;
32633;SDS011;19043;51.012;5.648;2023-04-25T13:00:09;4.63;;;1.60;;
32633;SDS011;19043;51.012;5.648;2023-04-25T13:02:39;6.13;;;1.90;;
32633;SDS011;19043;51.012;5.648;2023-04-25T13:05:05;5.57;;;2.10;;
32633;SDS011;19043;51.012;5.648;2023-04-25T13:07:30;4.10;;;1.70;;
32633;SDS011;19043;51.012;5.648;2023-04-25T13:09:56;4.68;;;1.85;;
32633;SDS011;19043;51.012;5.648;2023-04-25T13:12:21;3.95;;;1.60;;
32633;SDS011;19043;51.012;5.648;2023-04-25T13:14:46;3.92;;;1.55;;
32633;SDS011;19043;51.012;5.648;2023-04-25T13:17:11;6.13;;;1.85;;
32633;SDS011;19043;51.012;5.648;2023-04-25T13:19:36;3.50;;;1.67;;
32633;SDS011;19043;51.012;5.648;2023-04-25T13:22:03;4.30;;;1.05;;
32633;SDS011;19043;51.012;5.648;2023-04-25T13:24:29;10.40;;;2.20;;
32633;SDS011;19043;51.012;5.648;2023-04-25T13:26:54;5.10;;;1.48;;
32633;SDS011;19043;51.012;5.648;2023-04-25T13:29:20;5.65;;;1.75;;
32633;SDS011;19043;51.012;5.648;2023-04-25T13:31:45;3.50;;;1.55;;
32633;SDS011;19043;51.012;5.648;2023-04-25T13:34:10;4.65;;;1.38;;
32633;SDS011;19043;51.012;5.648;2023-04-25T13:36:37;4.38;;;1.45;;
32633;SDS011;19043;51.012;5.648;2023-04-25T13:39:03;4.47;;;1.60;;
32633;SDS011;19043;51.012;5.648;2023-04-25T13:41:29;3.97;;;1.67;;
32633;SDS011;19043;51.012;5.648;2023-04-25T13:43:54;11.55;;;2.13;;
32633;SDS011;19043;51.012;5.648;2023-04-25T13:46:20;5.13;;;1.80;;
32633;SDS011;19043;51.012;5.648;2023-04-25T13:48:45;6.18;;;2.38;;
32633;SDS011;19043;51.012;5.648;2023-04-25T13:51:13;5.65;;;1.52;;
32633;SDS011;19043;51.012;5.648;2023-04-25T13:53:39;4.88;;;2.28;;
32633;SDS011;19043;51.012;5.648;2023-04-25T13:56:04;5.45;;;1.70;;
32633;SDS011;19043;51.012;5.648;2023-04-25T13:58:30;3.80;;;1.60;;
32633;SDS011;19043;51.012;5.648;2023-04-25T14:00:55;2.92;;;1.42;;
32633;SDS011;19043;51.012;5.648;2023-04-25T14:03:21;4.68;;;1.60;;
32633;SDS011;19043;51.012;5.648;2023-04-25T14:05:46;15.48;;;1.50;;
32633;SDS011;19043;51.012;5.648;2023-04-25T14:08:11;4.07;;;1.60;;
32633;SDS011;19043;51.012;5.648;2023-04-25T14:10:37;4.43;;;1.48;;
32633;SDS011;19043;51.012;5.648;2023-04-25T14:13:02;6.90;;;1.95;;
32633;SDS011;19043;51.012;5.648;2023-04-25T14:15:28;3.08;;;1.55;;
32633;SDS011;19043;51.012;5.648;2023-04-25T14:17:54;2.15;;;1.05;;
32633;SDS011;19043;51.012;5.648;2023-04-25T14:20:19;8.43;;;1.33;;
32633;SDS011;19043;51.012;5.648;2023-04-25T14:22:46;4.18;;;1.40;;
32633;SDS011;19043;51.012;5.648;2023-04-25T14:25:11;5.68;;;2.00;;
32633;SDS011;19043;51.012;5.648;2023-04-25T14:27:37;3.33;;;1.13;;
32633;SDS011;19043;51.012;5.648;2023-04-25T14:30:02;4.63;;;1.75;;
32633;SDS011;19043;51.012;5.648;2023-04-25T14:32:27;3.92;;;1.42;;
32633;SDS011;19043;51.012;5.648;2023-04-25T14:34:52;9.88;;;1.88;;
32633;SDS011;19043;51.012;5.648;2023-04-25T14:37:18;5.85;;;1.70;;
32633;SDS011;19043;51.012;5.648;2023-04-25T14:39:43;8.95;;;2.03;;
32633;SDS011;19043;51.012;5.648;2023-04-25T14:42:08;2.92;;;1.15;;